Terminal Aerodrome Forecast
Issued by NWS

Home | Current Version | Previous Version | Text Only | Print | Product List | Glossary On
Versions: 1 2 3 4 5 6 7 8 9 10 11
000
FTUS44 KLUB 251100
TAFCDS
TAF
KCDS 251123Z 2512/2612 20012KT P6SM BKN250
     FM251700 20019KT P6SM BKN250
     FM260000 18011KT P6SM BKN250=

USA.gov is the U.S. government's official web portal to all federal, state and local government web resources and services.